Share

Siemreap, Cambodia

Siem Reap (VDSR) Elev 49 ft | 13.37 °N, 103.85 °E | Change Station

Current weather conditions updated 32 minutes ago

Clear
Clear
79 °F
Feels Like 79 °F
N
0
Wind Variable Wind from North
Sunrise 5:49 AM
Sunset 6:18 PM
Moon Waning Gibbous

Today is forecast to be nearly the same temperature as yesterday.

Pressure 29.77 in
Visibility 5.6 miles
Clouds
Dew Point 79 °F
Humidity 100%
Rainfall 0.00 in
Snow Depth Not available.
UV Not available.
Pollen Not available.
Air Quality Not available.
Flu Activity Not available.
METAR VDSR 190000Z 00000KT 9000 NSC 26/26 Q1008 NOSIG

More Conditions Fewer Conditions

Pressure 29.77 in
Visibility 5.6 miles
Clouds
Dew Point 79 °F
Humidity 100%
Rainfall 0.00 in
Snow Depth Not available.
UV Not available.
Pollen Not available.
Air Quality Not available.
Flu Activity Not available.
METAR VDSR 190000Z 00000KT 9000 NSC 26/26 Q1008 NOSIG

More Conditions Fewer Conditions

10-Day Weather Forecast

Almanac

Astronomy

Apr. 19, 2014 Rise Set
Actual Time 5:49 AM ICT 6:18 PM ICT
Civil Twilight 5:28 AM ICT 6:39 PM ICT
Nautical Twilight 5:02 AM ICT 7:05 PM ICT
Astronomical Twilight 4:37 AM ICT 7:30 PM ICT
Moon 10:07 PM ICT 8:59 AM ICT
Length of Visible Light 13h 11m
Length of Day
12h 28m
Tomorrow will be 0m 42s longer.
Waning Gibbous, 84% of the Moon is Illuminated
Apr 18
Waning Gibbous
Apr 22
Last Quarter
Apr 29
New
May 6
First Quarter
May 14
Full

Yesterday's Extremes

Country Highs Country Lows

Community

  • Cloudy spring view
    Cloudy spring view
  • Old barn
    Old barn
  • What's for Lunch?
    What's for Lunch?
  • SUNRISE THROUGH THE TREES.
    SUNRISE THROUGH THE TREES.
  • Dog Wood Blossoms
    Dog Wood Blossoms

WunderPhotos

Upload Photos

1,702,551 photos uploaded!

WunderBlogs® & News

Nearby

Snow Depth

Not available.

Coastal Water Temperatures

Place Temperature
No Stations Reporting

Earthquake Activity

City Distance Mag. Time & Date
No recent earthquake activity has been reported nearby.
Minimum magnitude displayed is 2.5.

Nearby Weather Stations

There are no personal weather stations in this area.

What do you think?

We're not finished. Please let us know what you like, what you don't like, and what you are still missing.